Time;durP1;ratioP1;P1;durP2;ratioP2;P2;SDS_P1;SDS_P2;PMS_P1;PMS_P2;Temp;Humidity;BMP_temperature;BMP_pressure;BME280_temperature;BME280_humidity;BME280_pressure;Samples;Min_cycle;Max_cycle;Signal;HPM_P1;HPM_P2
2021/07/13 00:00:17;;;;;;;9.60;8.80;;;17.60;99.90;;;;;;5031537;28;20421;-54
2021/07/13 00:02:42;;;;;;;9.13;8.43;;;17.60;99.90;;;;;;5030439;28;20489;-55
2021/07/13 00:05:12;;;;;;;10.07;9.27;;;17.60;99.90;;;;;;5038655;28;20916;-55
2021/07/13 00:07:37;;;;;;;9.47;8.77;;;17.50;99.90;;;;;;5028041;28;20220;-54
2021/07/13 00:10:06;;;;;;;9.27;8.47;;;17.40;99.90;;;;;;5031135;28;20436;-54
2021/07/13 00:12:32;;;;;;;9.90;9.00;;;17.40;99.90;;;;;;5029064;28;20202;-53
2021/07/13 00:14:58;;;;;;;10.30;9.50;;;17.40;99.90;;;;;;5030612;28;20428;-52
2021/07/13 00:17:23;;;;;;;9.23;8.53;;;17.40;99.90;;;;;;5030763;28;20594;-55
2021/07/13 00:19:49;;;;;;;10.47;9.47;;;17.30;99.90;;;;;;5027501;28;20206;-55
2021/07/13 00:22:14;;;;;;;9.27;8.57;;;17.40;99.90;;;;;;5030443;28;20186;-52
2021/07/13 00:24:39;;;;;;;9.60;8.87;;;17.30;99.90;;;;;;5025404;28;20238;-54
2021/07/13 00:27:05;;;;;;;9.90;8.90;;;17.30;99.90;;;;;;5026283;28;20192;-55
2021/07/13 00:29:30;;;;;;;9.70;8.90;;;17.30;99.90;;;;;;5029838;28;20185;-53
2021/07/13 00:31:56;;;;;;;9.30;8.57;;;17.30;99.90;;;;;;5029043;28;20660;-54
2021/07/13 00:34:21;;;;;;;10.03;9.07;;;17.30;99.90;;;;;;5030567;28;20183;-55
2021/07/13 00:36:47;;;;;;;9.60;8.90;;;17.30;99.90;;;;;;5030594;28;20672;-56
2021/07/13 00:39:13;;;;;;;9.73;8.93;;;17.30;99.90;;;;;;5028137;28;20636;-56
2021/07/13 00:41:38;;;;;;;9.17;8.47;;;17.20;99.90;;;;;;5030780;28;20190;-56
2021/07/13 00:44:05;;;;;;;9.30;8.50;;;17.20;99.90;;;;;;5025243;28;20426;-54
2021/07/13 00:46:37;;;;;;;9.43;8.73;;;17.20;99.90;;;;;;5030408;28;20193;-58
2021/07/13 00:49:04;;;;;;;10.05;9.07;;;17.20;99.90;;;;;;5030150;28;20437;-53
2021/07/13 00:51:30;;;;;;;9.90;8.70;;;17.20;99.90;;;;;;5029931;28;20295;-56
2021/07/13 00:53:56;;;;;;;9.63;8.83;;;17.20;99.90;;;;;;5028510;28;20523;-53
2021/07/13 00:56:22;;;;;;;9.70;8.77;;;17.20;99.90;;;;;;5030416;28;20186;-55
2021/07/13 00:58:48;;;;;;;9.77;8.97;;;17.20;99.90;;;;;;5030119;28;21122;-56
2021/07/13 01:01:13;;;;;;;9.40;8.60;;;17.10;99.90;;;;;;5029367;28;20483;-52
2021/07/13 01:03:39;;;;;;;10.20;9.17;;;17.10;99.90;;;;;;5035789;28;20944;-54
2021/07/13 01:06:04;;;;;;;9.03;8.23;;;17.10;99.90;;;;;;5028987;28;20240;-55
2021/07/13 01:09:02;;;;;;;9.13;8.40;;;17.10;99.90;;;;;;5028383;28;20919;-52
2021/07/13 01:11:47;;;;;;;9.27;8.57;;;17.00;99.90;;;;;;5020671;28;20266;-54
2021/07/13 01:14:27;;;;;;;10.97;8.53;;;17.10;99.90;;;;;;5028050;28;20420;-53
2021/07/13 01:17:05;;;;;;;9.00;8.30;;;17.00;99.90;;;;;;5018577;28;20546;-55
2021/07/13 01:19:49;;;;;;;9.27;8.57;;;16.90;99.90;;;;;;5029649;28;20968;-54
2021/07/13 01:22:39;;;;;;;9.20;8.50;;;16.90;99.90;;;;;;5028766;28;20440;-56
2021/07/13 01:25:07;;;;;;;9.37;8.57;;;16.90;99.90;;;;;;5018891;28;20424;-55
2021/07/13 01:27:44;;;;;;;10.00;9.10;;;16.80;99.90;;;;;;5006587;28;20455;-55
2021/07/13 01:30:14;;;;;;;9.80;9.00;;;16.70;99.90;;;;;;5020464;28;20440;-55
2021/07/13 01:32:44;;;;;;;9.13;8.27;;;16.70;99.90;;;;;;5029609;28;20244;-54
2021/07/13 01:35:18;;;;;;;9.70;8.90;;;16.70;99.90;;;;;;5023749;28;20443;-52
2021/07/13 01:37:49;;;;;;;9.50;8.80;;;16.70;99.90;;;;;;5029136;28;20529;-56
2021/07/13 01:40:15;;;;;;;10.33;9.37;;;16.60;99.90;;;;;;5027390;28;20499;-56
2021/07/13 01:42:42;;;;;;;9.67;8.97;;;16.60;99.90;;;;;;5029542;28;20755;-54
2021/07/13 01:45:09;;;;;;;10.03;9.23;;;16.60;99.90;;;;;;5011852;28;20851;-54
2021/07/13 01:47:39;;;;;;;8.93;8.13;;;16.50;99.90;;;;;;5023318;28;20470;-54
2021/07/13 01:50:09;;;;;;;10.20;9.30;;;16.50;99.90;;;;;;5026424;28;20423;-51
2021/07/13 01:52:36;;;;;;;10.25;9.20;;;16.50;99.90;;;;;;5028522;28;20542;-53
2021/07/13 01:55:04;;;;;;;9.00;8.30;;;16.50;99.90;;;;;;5029259;28;20185;-52
2021/07/13 01:57:33;;;;;;;10.30;9.40;;;16.50;99.90;;;;;;5028102;28;20504;-54
2021/07/13 02:00:01;;;;;;;10.30;9.50;;;16.50;99.90;;;;;;5011427;28;20423;-53
2021/07/13 02:02:30;;;;;;;10.30;9.33;;;16.40;99.90;;;;;;5028253;28;20419;-54
2021/07/13 02:04:58;;;;;;;10.63;9.63;;;16.40;99.90;;;;;;5030555;28;20446;-53
2021/07/13 02:07:24;;;;;;;9.40;8.60;;;16.40;99.90;;;;;;5028380;28;20440;-55
2021/07/13 02:09:51;;;;;;;10.27;9.37;;;16.40;99.90;;;;;;5027746;28;21106;-54
2021/07/13 02:12:17;;;;;;;10.20;9.30;;;16.40;99.90;;;;;;5029378;28;20458;-56
2021/07/13 02:14:43;;;;;;;9.80;8.90;;;16.40;99.90;;;;;;5029178;28;20451;-56
2021/07/13 02:17:10;;;;;;;10.33;9.50;;;16.40;99.90;;;;;;5028892;28;20473;-55
2021/07/13 02:19:35;;;;;;;10.30;9.50;;;16.40;99.90;;;;;;5028340;28;20549;-54
2021/07/13 02:22:02;;;;;;;10.03;9.23;;;16.30;99.90;;;;;;5033100;28;20504;-55
2021/07/13 02:24:28;;;;;;;10.13;9.10;;;16.30;99.90;;;;;;5033059;28;20265;-58
2021/07/13 02:27:03;;;;;;;10.10;9.20;;;16.30;99.90;;;;;;5027656;28;20522;-51
2021/07/13 02:29:54;;;;;;;9.80;9.00;;;16.30;99.90;;;;;;5031279;28;21249;-56
2021/07/13 02:32:55;;;;;;;10.68;9.77;;;16.30;99.90;;;;;;5025895;28;20480;-55
2021/07/13 02:35:30;;;;;;;9.27;8.50;;;16.40;99.90;;;;;;4987989;28;20358;-55
2021/07/13 02:37:55;;;;;;;9.20;8.40;;;16.30;99.90;;;;;;5032728;28;20937;-53
2021/07/13 02:40:21;;;;;;;9.93;9.03;;;16.30;99.90;;;;;;5031923;28;20470;-54
2021/07/13 02:42:48;;;;;;;9.80;9.00;;;16.30;99.90;;;;;;5031998;28;20626;-55
2021/07/13 02:45:16;;;;;;;12.17;11.23;;;16.20;99.90;;;;;;5031523;28;20425;-53
2021/07/13 02:47:44;;;;;;;9.70;8.90;;;16.20;99.90;;;;;;5027609;28;20573;-52
2021/07/13 02:50:12;;;;;;;9.80;9.00;;;16.20;99.90;;;;;;5007328;28;20439;-52
2021/07/13 02:52:38;;;;;;;11.20;10.27;;;16.20;99.90;;;;;;5028450;28;20471;-52
2021/07/13 02:55:14;;;;;;;10.10;9.20;;;16.20;99.90;;;;;;5030205;28;20445;-55
2021/07/13 02:57:42;;;;;;;9.40;8.50;;;16.20;99.90;;;;;;5031641;28;20431;-53
2021/07/13 03:00:09;;;;;;;9.27;8.37;;;16.20;99.90;;;;;;5030332;28;20434;-52
2021/07/13 03:02:36;;;;;;;10.80;9.90;;;16.20;99.90;;;;;;5032413;28;20405;-52
2021/07/13 03:05:04;;;;;;;9.45;8.65;;;16.20;99.90;;;;;;5049669;28;20424;-53
2021/07/13 03:07:31;;;;;;;10.20;9.30;;;16.10;99.90;;;;;;5024302;28;20218;-54
2021/07/13 03:09:58;;;;;;;11.00;10.00;;;16.10;99.90;;;;;;5012112;28;20399;-53
2021/07/13 03:12:24;;;;;;;10.53;9.63;;;16.10;99.90;;;;;;5022619;28;20457;-54
2021/07/13 03:14:53;;;;;;;12.10;9.50;;;16.10;99.90;;;;;;5032219;28;20734;-54
2021/07/13 03:17:19;;;;;;;11.33;10.40;;;16.10;99.90;;;;;;5031786;28;20476;-53
2021/07/13 03:19:46;;;;;;;10.10;9.10;;;16.00;99.90;;;;;;5031491;28;20428;-55
2021/07/13 03:22:18;;;;;;;10.30;9.40;;;16.00;99.90;;;;;;5014331;28;20542;-52
2021/07/13 03:24:45;;;;;;;9.70;8.85;;;16.00;99.90;;;;;;5032221;28;20389;-54
2021/07/13 03:27:12;;;;;;;9.93;8.93;;;16.00;99.90;;;;;;5028172;28;20197;-53
2021/07/13 03:29:39;;;;;;;9.90;8.90;;;16.00;99.90;;;;;;5032083;28;20409;-52
2021/07/13 03:32:06;;;;;;;8.70;8.00;;;16.10;99.90;;;;;;5028825;28;20425;-53
2021/07/13 03:34:32;;;;;;;9.40;8.60;;;16.10;99.90;;;;;;5030992;28;20429;-54
2021/07/13 03:36:58;;;;;;;9.57;8.77;;;16.10;99.90;;;;;;5031351;28;20524;-56
2021/07/13 03:39:26;;;;;;;9.83;9.03;;;16.00;99.90;;;;;;5029295;28;20956;-55
2021/07/13 03:41:52;;;;;;;10.43;9.40;;;16.00;99.90;;;;;;5031878;28;20253;-54
2021/07/13 03:44:18;;;;;;;9.87;8.87;;;16.00;99.90;;;;;;5029971;28;20417;-52
2021/07/13 03:46:43;;;;;;;10.57;9.20;;;16.00;99.90;;;;;;5031286;28;20202;-52
2021/07/13 03:49:10;;;;;;;10.73;9.73;;;16.00;99.90;;;;;;5031166;28;20194;-52
2021/07/13 03:51:44;;;;;;;9.63;8.47;;;15.90;99.90;;;;;;5031557;28;20686;-49
2021/07/13 03:54:14;;;;;;;9.37;8.67;;;16.00;99.90;;;;;;5028678;28;20488;-55
2021/07/13 03:56:41;;;;;;;9.73;8.93;;;16.00;99.90;;;;;;5020376;28;20524;-54
2021/07/13 03:59:07;;;;;;;9.87;8.93;;;16.00;99.90;;;;;;5031343;28;20931;-52
2021/07/13 04:01:34;;;;;;;8.73;8.07;;;16.00;99.90;;;;;;5027618;28;20530;-52
2021/07/13 04:04:00;;;;;;;9.07;8.30;;;16.10;99.90;;;;;;5030223;28;20509;-56
2021/07/13 04:06:26;;;;;;;9.30;8.50;;;16.10;99.90;;;;;;5029871;28;20442;-55
2021/07/13 04:08:51;;;;;;;9.47;8.57;;;16.20;99.90;;;;;;5029644;28;20771;-56
2021/07/13 04:11:17;;;;;;;9.90;9.00;;;16.20;99.90;;;;;;5028815;28;20590;-51
2021/07/13 04:13:43;;;;;;;9.63;8.63;;;16.20;99.90;;;;;;5020541;28;20179;-53
2021/07/13 04:16:09;;;;;;;9.33;8.43;;;16.20;99.90;;;;;;5026774;28;20440;-50
2021/07/13 04:18:35;;;;;;;10.27;9.00;;;16.30;99.90;;;;;;5028971;28;20251;-55
2021/07/13 04:21:01;;;;;;;8.67;8.03;;;16.30;99.90;;;;;;5030720;28;20450;-52
2021/07/13 04:23:27;;;;;;;9.53;8.77;;;16.30;99.90;;;;;;5030914;28;20906;-52
2021/07/13 04:25:53;;;;;;;9.87;8.87;;;16.30;99.90;;;;;;5029566;28;20188;-50
2021/07/13 04:28:19;;;;;;;9.40;8.60;;;16.40;99.90;;;;;;5030875;28;20190;-54
2021/07/13 04:30:44;;;;;;;9.10;8.30;;;16.40;99.90;;;;;;5030768;28;20185;-55
2021/07/13 04:33:10;;;;;;;8.80;8.03;;;16.40;99.90;;;;;;5030855;28;20427;-50
2021/07/13 04:35:36;;;;;;;8.57;7.87;;;16.40;99.90;;;;;;5028590;28;20199;-50
2021/07/13 04:38:01;;;;;;;8.43;7.77;;;16.50;99.90;;;;;;5030605;28;20188;-50
2021/07/13 04:40:27;;;;;;;9.17;8.37;;;16.60;99.90;;;;;;5030268;28;20450;-50
2021/07/13 04:42:53;;;;;;;8.37;7.67;;;16.60;99.90;;;;;;5025130;28;20199;-54
2021/07/13 04:45:18;;;;;;;8.63;7.93;;;16.70;99.90;;;;;;5023900;28;20185;-55
2021/07/13 04:47:44;;;;;;;8.50;7.70;;;16.70;99.90;;;;;;5027059;28;20185;-51
2021/07/13 04:50:10;;;;;;;8.73;7.83;;;16.70;99.90;;;;;;5019360;28;20294;-55
2021/07/13 04:52:36;;;;;;;9.27;8.33;;;16.80;99.90;;;;;;5030383;28;20192;-55
2021/07/13 04:55:02;;;;;;;9.23;8.43;;;16.90;99.90;;;;;;5028030;28;20428;-55
2021/07/13 04:57:29;;;;;;;8.40;7.60;;;17.00;99.90;;;;;;5030319;28;20228;-54
2021/07/13 04:59:54;;;;;;;8.07;7.37;;;17.10;99.90;;;;;;5026745;28;21144;-53
2021/07/13 05:02:21;;;;;;;8.23;7.47;;;17.10;99.90;;;;;;5029753;28;20639;-51
2021/07/13 05:04:46;;;;;;;8.57;7.97;;;17.20;99.90;;;;;;5029827;28;20189;-55
2021/07/13 05:07:12;;;;;;;8.47;7.80;;;17.30;99.90;;;;;;5029609;28;20762;-52
2021/07/13 05:09:38;;;;;;;8.20;7.60;;;17.30;99.90;;;;;;5029464;28;20198;-53
2021/07/13 05:12:04;;;;;;;8.33;7.63;;;17.40;99.90;;;;;;5027569;28;20221;-50
2021/07/13 05:14:29;;;;;;;8.40;7.70;;;17.50;99.90;;;;;;5029660;28;20199;-53
2021/07/13 05:16:55;;;;;;;8.83;8.13;;;17.60;96.90;;;;;;5029873;28;20472;-54
2021/07/13 05:19:21;;;;;;;8.47;7.67;;;17.70;97.30;;;;;;5028889;28;20186;-56
2021/07/13 05:21:54;;;;;;;7.90;7.30;;;17.70;95.10;;;;;;5022399;28;20323;-56
2021/07/13 05:24:20;;;;;;;8.07;7.47;;;17.80;94.70;;;;;;5029557;28;20268;-57
2021/07/13 05:26:46;;;;;;;9.30;7.70;;;17.90;95.90;;;;;;5023556;28;20528;-54
2021/07/13 05:29:11;;;;;;;8.60;7.80;;;18.00;96.40;;;;;;5026681;28;20162;-54
2021/07/13 05:31:37;;;;;;;7.50;7.00;;;18.10;95.20;;;;;;5027449;28;20214;-55
2021/07/13 05:34:03;;;;;;;8.20;7.40;;;18.10;92.70;;;;;;5029260;28;20185;-52
2021/07/13 05:36:28;;;;;;;8.37;7.57;;;18.20;91.00;;;;;;5029448;28;20280;-52
2021/07/13 05:38:54;;;;;;;7.50;6.97;;;18.30;84.00;;;;;;5027512;28;20244;-54
2021/07/13 05:41:21;;;;;;;7.30;6.80;;;18.40;80.90;;;;;;5029100;28;20573;-55
2021/07/13 05:43:48;;;;;;;8.03;7.33;;;18.50;73.30;;;;;;5029813;28;20171;-54
2021/07/13 05:46:13;;;;;;;7.03;6.53;;;18.60;65.50;;;;;;5023004;28;20853;-56
2021/07/13 05:48:39;;;;;;;7.33;6.73;;;18.70;56.00;;;;;;5029548;28;20421;-54
2021/07/13 05:51:04;;;;;;;7.53;6.93;;;18.70;52.80;;;;;;5028197;28;20186;-54
2021/07/13 05:53:31;;;;;;;8.30;6.77;;;18.80;51.50;;;;;;5029151;28;20497;-55
2021/07/13 05:55:57;;;;;;;7.77;7.17;;;18.90;49.30;;;;;;5028937;28;20170;-52
2021/07/13 05:58:22;;;;;;;7.67;7.07;;;19.00;46.20;;;;;;5029354;28;20820;-55
2021/07/13 06:00:48;;;;;;;7.90;7.20;;;19.10;38.90;;;;;;5016991;28;20183;-54
2021/07/13 06:03:14;;;;;;;7.00;6.50;;;19.20;41.60;;;;;;5028956;28;20271;-51
2021/07/13 06:05:40;;;;;;;7.23;6.63;;;19.20;39.40;;;;;;5026782;28;20441;-51
2021/07/13 06:08:05;;;;;;;9.33;6.43;;;19.40;38.00;;;;;;5017311;28;20182;-53
2021/07/13 06:10:31;;;;;;;7.53;6.87;;;19.60;33.00;;;;;;5028714;28;20556;-53
2021/07/13 06:12:56;;;;;;;6.93;6.33;;;19.70;28.00;;;;;;5021743;28;20250;-51
2021/07/13 06:15:22;;;;;;;6.67;6.17;;;19.90;18.70;;;;;;5027793;28;20263;-49
2021/07/13 06:17:48;;;;;;;6.63;6.00;;;20.00;16.40;;;;;;5025817;28;20640;-55
2021/07/13 06:20:14;;;;;;;6.47;5.87;;;20.20;14.20;;;;;;5028589;28;20187;-55
2021/07/13 06:22:40;;;;;;;6.25;5.65;;;20.40;4.80;;;;;;5028265;28;20876;-53
2021/07/13 06:25:07;;;;;;;5.70;5.30;;;20.80;1.00;;;;;;5028611;28;20214;-53
2021/07/13 06:27:33;;;;;;;6.32;5.82;;;21.10;1.00;;;;;;5028254;28;20835;-53
2021/07/13 06:29:59;;;;;;;7.20;5.63;;;21.40;1.00;;;;;;5028644;28;20455;-54
2021/07/13 06:32:24;;;;;;;6.80;6.20;;;21.70;1.00;;;;;;5028099;28;20483;-49
2021/07/13 06:34:50;;;;;;;6.03;5.60;;;22.00;1.00;;;;;;5010682;28;20174;-53
2021/07/13 06:37:16;;;;;;;6.07;5.67;;;22.30;1.00;;;;;;5028127;28;20184;-54
2021/07/13 06:39:41;;;;;;;5.70;5.30;;;22.50;1.00;;;;;;5018193;28;20190;-56
2021/07/13 06:42:07;;;;;;;5.90;5.23;;;22.70;1.00;;;;;;5028311;28;20628;-54
2021/07/13 06:44:32;;;;;;;5.53;5.13;;;22.80;1.00;;;;;;5028240;28;20899;-56
2021/07/13 06:46:58;;;;;;;6.67;6.23;;;23.00;1.00;;;;;;5027863;28;20533;-54
2021/07/13 06:49:23;;;;;;;6.83;6.13;;;23.00;1.00;;;;;;5027925;28;20175;-53
2021/07/13 06:51:49;;;;;;;6.00;5.60;;;23.00;1.00;;;;;;5028065;28;20245;-54
2021/07/13 06:54:15;;;;;;;6.20;5.80;;;22.90;1.00;;;;;;5010397;28;20214;-55
2021/07/13 06:56:40;;;;;;;5.93;5.47;;;23.00;1.00;;;;;;5028094;28;20342;-53
2021/07/13 06:59:06;;;;;;;5.67;5.27;;;23.00;1.00;;;;;;5027203;28;20726;-55
2021/07/13 07:01:31;;;;;;;5.97;5.57;;;23.10;99.90;;;;;;5027370;28;20269;-53
2021/07/13 07:03:57;;;;;;;6.20;5.70;;;23.00;1.00;;;;;;5020395;28;20292;-52
2021/07/13 07:06:22;;;;;;;6.30;5.80;;;23.10;1.00;;;;;;5017582;28;20187;-53
2021/07/13 07:08:48;;;;;;;8.23;5.37;;;23.30;1.00;;;;;;5016842;28;20172;-53
2021/07/13 07:11:13;;;;;;;6.30;5.70;;;23.40;1.00;;;;;;5022813;28;20187;-55
2021/07/13 07:13:40;;;;;;;5.97;5.57;;;23.60;99.90;;;;;;5030241;28;20191;-54
2021/07/13 07:16:06;;;;;;;6.60;6.20;;;23.80;99.90;;;;;;5024884;28;20182;-54
2021/07/13 07:18:31;;;;;;;6.40;6.00;;;23.80;99.90;;;;;;5029922;28;20476;-55
2021/07/13 07:20:57;;;;;;;6.88;6.38;;;23.80;99.90;;;;;;5030638;28;20403;-52
2021/07/13 07:23:23;;;;;;;6.70;6.20;;;23.80;99.90;;;;;;5030046;28;20664;-54
2021/07/13 07:25:48;;;;;;;7.07;6.57;;;23.80;99.90;;;;;;5030683;28;20603;-55
2021/07/13 07:28:14;;;;;;;6.63;6.23;;;23.80;99.90;;;;;;5030746;28;20178;-53
2021/07/13 07:30:39;;;;;;;6.77;6.17;;;23.90;99.90;;;;;;5030613;28;20171;-55
2021/07/13 07:33:05;;;;;;;7.30;6.90;;;23.80;99.90;;;;;;5009184;28;20581;-53
2021/07/13 07:35:31;;;;;;;7.50;7.00;;;24.00;99.90;;;;;;5025600;28;20629;-52
2021/07/13 07:37:58;;;;;;;7.57;6.97;;;24.00;99.90;;;;;;5030980;28;20182;-51
2021/07/13 07:40:24;;;;;;;7.53;7.03;;;24.00;99.90;;;;;;5035836;28;20222;-52
2021/07/13 07:42:52;;;;;;;7.57;7.07;;;24.00;99.90;;;;;;5030311;28;20955;-52
2021/07/13 07:45:20;;;;;;;6.60;6.20;;;24.10;99.90;;;;;;5030183;28;20417;-49
2021/07/13 07:47:46;;;;;;;6.93;6.43;;;24.30;99.90;;;;;;5030614;28;21014;-52
2021/07/13 07:50:12;;;;;;;8.07;7.30;;;24.40;99.90;;;;;;5030256;28;20511;-52
2021/07/13 07:52:38;;;;;;;7.13;6.63;;;24.50;99.90;;;;;;5030211;28;20409;-53
2021/07/13 07:55:08;;;;;;;7.77;7.17;;;24.70;99.90;;;;;;5028963;28;20477;-53
2021/07/13 07:57:34;;;;;;;7.67;7.17;;;24.90;99.90;;;;;;5029684;28;20178;-49
2021/07/13 07:59:59;;;;;;;7.50;7.00;;;25.00;1.00;;;;;;5030028;28;20420;-52
2021/07/13 08:02:25;;;;;;;8.38;7.78;;;25.20;1.00;;;;;;5029112;28;20240;-51
2021/07/13 08:04:50;;;;;;;8.30;7.70;;;25.30;1.00;;;;;;5029600;28;20525;-55
2021/07/13 08:07:18;;;;;;;8.00;7.50;;;25.50;99.90;;;;;;5030212;28;20174;-53
2021/07/13 08:09:44;;;;;;;9.20;8.43;;;25.70;1.00;;;;;;5026009;28;20170;-51
2021/07/13 08:12:09;;;;;;;8.57;7.90;;;25.90;1.00;;;;;;5027440;28;20440;-50
2021/07/13 08:14:35;;;;;;;8.70;8.10;;;26.00;99.90;;;;;;5026006;28;20238;-55
2021/07/13 08:17:00;;;;;;;8.10;7.60;;;26.30;1.00;;;;;;5027549;28;20684;-55
2021/07/13 08:19:26;;;;;;;8.73;8.13;;;26.40;99.90;;;;;;5029205;28;20213;-52
2021/07/13 08:21:51;;;;;;;9.70;9.10;;;26.50;99.90;;;;;;5020775;28;20249;-52
2021/07/13 08:24:18;;;;;;;9.33;8.73;;;26.70;1.00;;;;;;5017899;28;20258;-54
2021/07/13 08:26:44;;;;;;;9.70;9.10;;;26.90;1.00;;;;;;5027197;28;20257;-52
2021/07/13 08:29:09;;;;;;;9.60;9.00;;;27.10;99.90;;;;;;5029430;28;20421;-52
2021/07/13 08:31:35;;;;;;;9.80;9.10;;;27.20;99.90;;;;;;5029336;28;20193;-52
2021/07/13 08:34:00;;;;;;;9.73;9.13;;;27.30;1.00;;;;;;5029653;28;20194;-54
2021/07/13 08:36:26;;;;;;;9.40;8.80;;;27.40;99.90;;;;;;5029641;28;20396;-53
2021/07/13 08:38:52;;;;;;;9.80;9.20;;;27.40;1.00;;;;;;5036224;28;20586;-55
2021/07/13 08:41:21;;;;;;;10.40;9.73;;;27.50;99.90;;;;;;5030360;28;20214;-53
2021/07/13 08:43:48;;;;;;;9.93;9.33;;;27.70;99.90;;;;;;5028890;28;20652;-57
2021/07/13 08:46:15;;;;;;;9.60;9.00;;;27.80;99.90;;;;;;5027316;28;20437;-54
2021/07/13 08:48:40;;;;;;;10.97;10.17;;;27.80;99.90;;;;;;5029617;28;20424;-54
2021/07/13 08:51:07;;;;;;;10.90;10.20;;;27.90;99.90;;;;;;5029787;28;20429;-54
2021/07/13 08:53:33;;;;;;;10.60;9.80;;;27.90;99.90;;;;;;5026275;28;20186;-52
2021/07/13 08:55:59;;;;;;;10.70;9.90;;;27.90;99.90;;;;;;5029179;28;20443;-53
2021/07/13 08:58:26;;;;;;;10.15;9.55;;;28.00;99.90;;;;;;5026285;28;20813;-54
2021/07/13 09:00:52;;;;;;;11.60;10.80;;;28.10;99.90;;;;;;5029532;28;20647;-52
2021/07/13 09:03:20;;;;;;;10.73;9.93;;;28.30;99.90;;;;;;5028180;28;20453;-50
2021/07/13 09:05:50;;;;;;;11.33;10.63;;;28.40;99.90;;;;;;5029530;28;21125;-52
2021/07/13 09:08:25;;;;;;;10.90;10.10;;;28.50;7.60;;;;;;5010822;28;20429;-53
2021/07/13 09:11:12;;;;;;;10.87;10.17;;;28.50;99.90;;;;;;5022198;28;20441;-54
2021/07/13 09:13:42;;;;;;;10.53;9.83;;;28.50;99.90;;;;;;5028936;28;20425;-51
2021/07/13 09:16:13;;;;;;;10.93;10.27;;;28.60;99.90;;;;;;5027897;28;20455;-53
2021/07/13 09:18:57;;;;;;;10.40;9.70;;;28.80;1.00;;;;;;5028421;28;20221;-54
2021/07/13 09:21:25;;;;;;;11.15;10.32;;;29.00;99.90;;;;;;5017633;28;20463;-51
2021/07/13 09:24:17;;;;;;;11.00;10.30;;;29.20;99.90;;;;;;5028873;28;20201;-54
2021/07/13 09:26:44;;;;;;;10.40;9.80;;;29.40;99.90;;;;;;5026112;28;20803;-53
2021/07/13 09:29:29;;;;;;;10.80;9.90;;;29.40;1.00;;;;;;5027902;28;20938;-53
2021/07/13 09:32:14;;;;;;;10.20;9.60;;;29.40;1.00;;;;;;5026868;28;21009;-54
2021/07/13 09:34:48;;;;;;;9.95;9.35;;;29.60;99.90;;;;;;5027842;28;21083;-54
2021/07/13 09:37:22;;;;;;;9.97;9.33;;;29.80;99.90;;;;;;5031853;28;20185;-50
2021/07/13 09:40:17;;;;;;;9.93;9.30;;;30.10;99.90;;;;;;5028713;28;20521;-53
2021/07/13 09:42:51;;;;;;;10.30;9.70;;;30.30;44.60;;;;;;5020297;28;20547;-53
2021/07/13 09:45:28;;;;;;;10.00;9.30;;;30.40;13.90;;;;;;5028481;28;20205;-55
2021/07/13 09:48:08;;;;;;;10.67;10.00;;;30.40;1.00;;;;;;5026653;28;20476;-53
2021/07/13 09:50:39;;;;;;;10.57;9.93;;;30.30;1.00;;;;;;5028463;28;20817;-55
2021/07/13 09:53:07;;;;;;;10.18;9.48;;;30.40;64.30;;;;;;5028756;28;20975;-54
2021/07/13 09:55:33;;;;;;;10.40;9.70;;;30.50;1.00;;;;;;5028563;28;20226;-56
2021/07/13 09:58:10;;;;;;;10.67;10.07;;;30.70;1.00;;;;;;5026511;28;20444;-54
2021/07/13 10:00:35;;;;;;;10.25;9.65;;;30.90;1.00;;;;;;5028324;28;20518;-57
2021/07/13 10:03:02;;;;;;;10.00;9.40;;;31.20;1.00;;;;;;5027720;28;20213;-51
2021/07/13 10:05:29;;;;;;;11.10;10.40;;;31.20;1.00;;;;;;5028277;28;20252;-53
2021/07/13 10:07:56;;;;;;;9.83;9.20;;;31.40;1.00;;;;;;5026457;28;20751;-52
2021/07/13 10:10:24;;;;;;;10.37;9.77;;;31.50;1.00;;;;;;5027918;28;20736;-50
2021/07/13 10:12:53;;;;;;;10.43;9.83;;;31.50;1.00;;;;;;5028047;28;20442;-54
2021/07/13 10:15:19;;;;;;;9.80;9.20;;;31.20;1.00;;;;;;5027621;28;20474;-56
2021/07/13 10:17:45;;;;;;;10.33;9.73;;;31.20;1.00;;;;;;5027243;28;20480;-57
2021/07/13 10:20:12;;;;;;;9.77;9.20;;;31.40;1.00;;;;;;5024923;28;20290;-55
2021/07/13 10:22:43;;;;;;;10.20;9.50;;;31.50;1.00;;;;;;5028317;28;20676;-50
2021/07/13 10:25:10;;;;;;;9.77;9.27;;;31.60;1.00;;;;;;5027928;28;20421;-55
2021/07/13 10:27:40;;;;;;;10.73;9.60;;;31.70;1.00;;;;;;5020074;28;20421;-54
2021/07/13 10:30:08;;;;;;;10.50;9.80;;;31.70;1.00;;;;;;5027789;28;20426;-53
2021/07/13 10:32:36;;;;;;;10.37;9.77;;;31.80;1.00;;;;;;5026041;28;20432;-58
2021/07/13 10:35:23;;;;;;;10.77;9.80;;;31.90;1.00;;;;;;5029234;28;20421;-54
2021/07/13 10:37:55;;;;;;;10.50;9.90;;;31.90;1.00;;;;;;5038831;28;20245;-52
2021/07/13 10:40:27;;;;;;;11.43;10.63;;;32.00;1.00;;;;;;5029287;28;20856;-55
2021/07/13 10:43:02;;;;;;;10.70;10.10;;;32.00;1.00;;;;;;5031677;28;20182;-54
2021/07/13 10:45:29;;;;;;;10.63;9.87;;;32.30;1.00;;;;;;5020403;28;21294;-54
2021/07/13 10:48:20;;;;;;;10.13;9.53;;;32.40;1.00;;;;;;5029542;28;20455;-54
2021/07/13 10:50:47;;;;;;;10.23;9.63;;;32.50;1.00;;;;;;5003299;28;20438;-52
2021/07/13 10:53:16;;;;;;;10.98;10.27;;;32.50;1.00;;;;;;5029738;28;20415;-53
2021/07/13 10:56:06;;;;;;;10.50;9.90;;;32.60;1.00;;;;;;5031255;28;20240;-55
2021/07/13 10:58:38;;;;;;;11.40;10.60;;;32.90;1.00;;;;;;5031492;28;20918;-53
2021/07/13 11:01:32;;;;;;;9.60;9.00;;;33.10;1.00;;;;;;5031272;28;20750;-57
2021/07/13 11:04:06;;;;;;;10.20;9.53;;;33.10;99.90;;;;;;5028962;28;20430;-54
2021/07/13 11:06:41;;;;;;;10.87;10.27;;;33.10;99.90;;;;;;5029930;28;20409;-54
2021/07/13 11:09:39;;;;;;;10.02;9.40;;;32.90;99.90;;;;;;5029433;28;20473;-55
2021/07/13 11:12:08;;;;;;;9.90;9.30;;;32.90;99.90;;;;;;4997451;28;20282;-53
2021/07/13 11:14:45;;;;;;;10.60;9.90;;;33.00;99.90;;;;;;5026604;28;20405;-52
2021/07/13 11:17:11;;;;;;;9.80;9.30;;;33.00;99.90;;;;;;5027275;28;20991;-55
2021/07/13 11:19:36;;;;;;;10.37;9.77;;;33.00;99.90;;;;;;5029776;28;20500;-55
2021/07/13 11:22:02;;;;;;;9.57;9.03;;;33.10;99.90;;;;;;5030452;28;20614;-57
2021/07/13 11:24:27;;;;;;;9.63;9.03;;;33.20;99.90;;;;;;5012661;28;20179;-55
2021/07/13 11:26:55;;;;;;;10.00;9.40;;;33.10;99.90;;;;;;5030302;28;20182;-56
2021/07/13 11:29:27;;;;;;;9.10;8.60;;;33.10;99.90;;;;;;5028493;28;20206;-54
2021/07/13 11:31:58;;;;;;;10.33;9.73;;;33.30;99.90;;;;;;5029518;28;20436;-49
2021/07/13 11:34:25;;;;;;;10.40;9.70;;;33.50;99.90;;;;;;5029839;28;20869;-49
2021/07/13 11:36:53;;;;;;;9.70;9.10;;;33.60;99.90;;;;;;5032255;28;20467;-53
2021/07/13 11:39:30;;;;;;;9.67;9.07;;;33.70;99.90;;;;;;5029982;28;20493;-55
2021/07/13 11:42:02;;;;;;;9.80;9.20;;;33.80;99.90;;;;;;5027411;28;20460;-52
2021/07/13 11:44:29;;;;;;;10.00;9.40;;;33.80;99.90;;;;;;5030200;28;20413;-55
2021/07/13 11:46:55;;;;;;;10.43;9.83;;;33.90;99.90;;;;;;5030126;28;20424;-51
2021/07/13 11:49:25;;;;;;;9.80;9.20;;;33.90;99.90;;;;;;5029814;28;20409;-55
2021/07/13 11:52:00;;;;;;;10.27;9.40;;;33.90;99.90;;;;;;5029125;28;20468;-54
2021/07/13 11:54:31;;;;;;;9.70;9.07;;;34.00;99.90;;;;;;5021616;28;20460;-54
2021/07/13 11:56:58;;;;;;;10.00;9.33;;;33.70;99.90;;;;;;5030353;28;20457;-54
2021/07/13 11:59:27;;;;;;;10.23;9.53;;;33.80;99.90;;;;;;5030239;28;20435;-58
2021/07/13 12:01:57;;;;;;;10.50;9.80;;;34.00;99.90;;;;;;5022202;28;20493;-56
2021/07/13 12:04:24;;;;;;;10.17;9.67;;;34.20;99.90;;;;;;5029501;28;20414;-55
2021/07/13 12:06:57;;;;;;;10.13;9.63;;;34.50;99.90;;;;;;5029832;28;20920;-55
2021/07/13 12:09:27;;;;;;;9.77;9.27;;;34.40;99.90;;;;;;5030000;28;20468;-54
2021/07/13 12:11:54;;;;;;;10.50;9.90;;;34.60;99.90;;;;;;5030159;28;20483;-56
2021/07/13 12:14:21;;;;;;;9.63;9.03;;;34.60;99.90;;;;;;5028980;28;20416;-57
2021/07/13 12:16:47;;;;;;;9.77;9.20;;;34.70;99.90;;;;;;5029857;28;20483;-56
2021/07/13 12:19:16;;;;;;;10.03;9.43;;;34.70;99.90;;;;;;5029006;28;20437;-53
2021/07/13 12:22:07;;;;;;;9.40;8.80;;;34.90;99.90;;;;;;5017469;28;20849;-56
2021/07/13 12:24:34;;;;;;;10.80;10.20;;;35.20;99.90;;;;;;5029781;28;20417;-56
2021/07/13 12:27:02;;;;;;;9.60;9.10;;;35.40;99.90;;;;;;5029901;28;20173;-55
2021/07/13 12:29:38;;;;;;;10.40;9.83;;;35.20;99.90;;;;;;5029408;28;20421;-55
2021/07/13 12:32:08;;;;;;;10.13;9.53;;;35.20;99.90;;;;;;5029600;28;20816;-53
2021/07/13 12:34:39;;;;;;;9.93;9.33;;;35.20;99.90;;;;;;5029344;28;20421;-54
2021/07/13 12:37:16;;;;;;;10.77;10.07;;;35.50;99.90;;;;;;5032287;28;20472;-55
2021/07/13 12:40:01;;;;;;;10.27;9.67;;;35.40;99.90;;;;;;5029636;28;20190;-51
2021/07/13 12:42:29;;;;;;;10.60;10.00;;;35.50;99.90;;;;;;5029381;28;20971;-53
2021/07/13 12:45:00;;;;;;;10.43;9.83;;;35.50;99.90;;;;;;5011885;28;20421;-53
2021/07/13 12:47:51;;;;;;;9.87;9.27;;;35.80;99.90;;;;;;5029619;28;20420;-54
2021/07/13 12:50:30;;;;;;;11.70;9.70;;;36.10;99.90;;;;;;5027354;28;20919;-55
2021/07/13 12:53:13;;;;;;;10.17;9.57;;;36.30;99.90;;;;;;5017786;28;20187;-56